sensor_id;sensor_type;location;lat;lon;timestamp;pressure;altitude;pressure_sealevel;temperature;humidity
56950;BME280;74437;50.080;19.924;2024-03-07T00:02:09;99552.41;;;1.49;91.87
56950;BME280;74437;50.080;19.924;2024-03-07T00:04:34;99550.75;;;1.48;91.93
56950;BME280;74437;50.080;19.924;2024-03-07T00:07:03;99553.28;;;1.50;92.16
56950;BME280;74437;50.080;19.924;2024-03-07T00:09:31;99529.84;;;1.29;92.29
56950;BME280;74437;50.080;19.924;2024-03-07T00:11:57;99553.63;;;1.47;92.25
56950;BME280;74437;50.080;19.924;2024-03-07T00:14:22;99536.50;;;1.33;92.86
56950;BME280;74437;50.080;19.924;2024-03-07T00:16:55;99560.31;;;1.43;92.70
56950;BME280;74437;50.080;19.924;2024-03-07T00:19:20;99461.63;;;0.86;92.96
56950;BME280;74437;50.080;19.924;2024-03-07T00:21:46;99552.66;;;1.40;92.40
56950;BME280;74437;50.080;19.924;2024-03-07T00:24:12;99554.50;;;1.39;92.61
56950;BME280;74437;50.080;19.924;2024-03-07T00:26:39;99555.53;;;1.38;92.86
56950;BME280;74437;50.080;19.924;2024-03-07T00:29:05;99550.19;;;1.38;93.13
56950;BME280;74437;50.080;19.924;2024-03-07T00:31:32;99542.31;;;1.37;92.46
56950;BME280;74437;50.080;19.924;2024-03-07T00:33:58;99478.13;;;0.90;92.93
56950;BME280;74437;50.080;19.924;2024-03-07T00:36:23;99547.84;;;1.35;93.29
56950;BME280;74437;50.080;19.924;2024-03-07T00:38:49;99551.34;;;1.36;93.29
56950;BME280;74437;50.080;19.924;2024-03-07T00:41:14;99547.00;;;1.34;93.51
56950;BME280;74437;50.080;19.924;2024-03-07T00:43:40;99527.22;;;1.21;93.16
56950;BME280;74437;50.080;19.924;2024-03-07T00:46:06;99505.75;;;1.06;92.39
56950;BME280;74437;50.080;19.924;2024-03-07T00:48:32;99537.88;;;1.29;92.82
56950;BME280;74437;50.080;19.924;2024-03-07T00:50:57;99548.34;;;1.30;93.45
56950;BME280;74437;50.080;19.924;2024-03-07T00:53:23;99528.06;;;1.21;92.87
56950;BME280;74437;50.080;19.924;2024-03-07T00:55:48;99495.47;;;0.94;93.12
56950;BME280;74437;50.080;19.924;2024-03-07T00:58:13;99545.53;;;1.32;92.72
56950;BME280;74437;50.080;19.924;2024-03-07T01:00:39;99509.59;;;1.03;92.58
56950;BME280;74437;50.080;19.924;2024-03-07T01:03:10;99531.19;;;1.25;92.26
56950;BME280;74437;50.080;19.924;2024-03-07T01:05:37;99524.38;;;1.22;92.58
56950;BME280;74437;50.080;19.924;2024-03-07T01:08:04;99545.53;;;1.32;92.43
56950;BME280;74437;50.080;19.924;2024-03-07T01:10:29;99465.47;;;0.84;92.45
56950;BME280;74437;50.080;19.924;2024-03-07T01:12:54;99515.06;;;1.18;92.17
56950;BME280;74437;50.080;19.924;2024-03-07T01:15:23;99534.84;;;1.32;92.25
56950;BME280;74437;50.080;19.924;2024-03-07T01:17:48;99507.53;;;1.13;91.91
56950;BME280;74437;50.080;19.924;2024-03-07T01:20:14;99540.00;;;1.33;92.13
56950;BME280;74437;50.080;19.924;2024-03-07T01:22:39;99518.53;;;1.18;92.17
56950;BME280;74437;50.080;19.924;2024-03-07T01:25:05;99495.59;;;1.01;91.94
56950;BME280;74437;50.080;19.924;2024-03-07T01:27:32;99546.84;;;1.36;91.87
56950;BME280;74437;50.080;19.924;2024-03-07T01:29:57;99541.19;;;1.31;91.02
56950;BME280;74437;50.080;19.924;2024-03-07T01:32:22;99554.00;;;1.36;91.17
56950;BME280;74437;50.080;19.924;2024-03-07T01:34:48;99527.19;;;1.29;91.91
56950;BME280;74437;50.080;19.924;2024-03-07T01:37:13;99547.66;;;1.37;91.07
56950;BME280;74437;50.080;19.924;2024-03-07T01:39:38;99539.84;;;1.35;91.09
56950;BME280;74437;50.080;19.924;2024-03-07T01:42:04;99546.34;;;1.32;91.77
56950;BME280;74437;50.080;19.924;2024-03-07T01:44:29;99547.19;;;1.33;90.76
56950;BME280;74437;50.080;19.924;2024-03-07T01:46:58;99513.19;;;1.18;90.91
56950;BME280;74437;50.080;19.924;2024-03-07T01:49:23;99525.19;;;1.23;90.23
56950;BME280;74437;50.080;19.924;2024-03-07T01:51:48;99541.19;;;1.31;89.72
56950;BME280;74437;50.080;19.924;2024-03-07T01:54:14;99511.91;;;1.06;89.55
56950;BME280;74437;50.080;19.924;2024-03-07T01:56:39;99544.88;;;1.30;90.11
56950;BME280;74437;50.080;19.924;2024-03-07T01:59:06;99542.19;;;1.30;90.56
56950;BME280;74437;50.080;19.924;2024-03-07T02:01:32;99536.84;;;1.30;90.84
56950;BME280;74437;50.080;19.924;2024-03-07T02:03:58;99534.19;;;1.30;89.91
56950;BME280;74437;50.080;19.924;2024-03-07T02:06:25;99534.19;;;1.30;89.69
56950;BME280;74437;50.080;19.924;2024-03-07T02:08:51;99532.50;;;1.29;89.63
56950;BME280;74437;50.080;19.924;2024-03-07T02:11:16;99506.88;;;1.11;89.54
56950;BME280;74437;50.080;19.924;2024-03-07T02:13:42;99532.31;;;1.30;89.58
56950;BME280;74437;50.080;19.924;2024-03-07T02:16:07;99521.53;;;1.24;89.13
56950;BME280;74437;50.080;19.924;2024-03-07T02:18:34;99513.69;;;1.22;89.77
56950;BME280;74437;50.080;19.924;2024-03-07T02:21:00;99516.84;;;1.26;90.04
56950;BME280;74437;50.080;19.924;2024-03-07T02:23:25;99523.31;;;1.31;89.38
56950;BME280;74437;50.080;19.924;2024-03-07T02:25:52;99529.66;;;1.30;89.24
56950;BME280;74437;50.080;19.924;2024-03-07T02:28:18;99531.66;;;1.28;89.05
56950;BME280;74437;50.080;19.924;2024-03-07T02:30:43;99523.19;;;1.25;89.52
56950;BME280;74437;50.080;19.924;2024-03-07T02:33:10;99541.22;;;1.23;89.54
56950;BME280;74437;50.080;19.924;2024-03-07T02:35:37;99525.19;;;1.23;89.13
56950;BME280;74437;50.080;19.924;2024-03-07T02:38:03;99524.53;;;1.21;89.97
56950;BME280;74437;50.080;19.924;2024-03-07T02:40:28;99496.75;;;1.07;89.83
56950;BME280;74437;50.080;19.924;2024-03-07T02:42:54;99524.25;;;1.07;90.21
56950;BME280;74437;50.080;19.924;2024-03-07T02:45:19;99497.66;;;0.91;90.06
56950;BME280;74437;50.080;19.924;2024-03-07T02:47:44;99518.69;;;0.94;90.64
56950;BME280;74437;50.080;19.924;2024-03-07T02:50:10;99520.84;;;0.90;90.90
56950;BME280;74437;50.080;19.924;2024-03-07T02:52:36;99518.16;;;0.90;90.92
56950;BME280;74437;50.080;19.924;2024-03-07T02:55:01;99530.34;;;0.93;90.98
56950;BME280;74437;50.080;19.924;2024-03-07T02:57:29;99528.25;;;0.80;91.36
56950;BME280;74437;50.080;19.924;2024-03-07T02:59:54;99540.22;;;0.84;91.29
56950;BME280;74437;50.080;19.924;2024-03-07T03:02:19;99520.06;;;0.73;91.35
56950;BME280;74437;50.080;19.924;2024-03-07T03:04:45;99528.94;;;0.73;90.48
56950;BME280;74437;50.080;19.924;2024-03-07T03:07:10;99525.59;;;0.71;90.74
56950;BME280;74437;50.080;19.924;2024-03-07T03:09:35;99510.94;;;0.59;91.72
56950;BME280;74437;50.080;19.924;2024-03-07T03:12:05;99540.28;;;0.76;91.50
56950;BME280;74437;50.080;19.924;2024-03-07T03:14:30;99534.94;;;0.76;90.99
56950;BME280;74437;50.080;19.924;2024-03-07T03:16:56;99520.09;;;0.65;91.11
56950;BME280;74437;50.080;19.924;2024-03-07T03:19:21;99532.94;;;0.78;91.17
56950;BME280;74437;50.080;19.924;2024-03-07T03:21:48;99549.75;;;0.78;91.21
56950;BME280;74437;50.080;19.924;2024-03-07T03:24:13;99542.09;;;0.75;90.55
56950;BME280;74437;50.080;19.924;2024-03-07T03:26:40;99536.09;;;0.73;90.39
56950;BME280;74437;50.080;19.924;2024-03-07T03:29:07;99538.28;;;0.69;89.63
56950;BME280;74437;50.080;19.924;2024-03-07T03:31:34;99549.63;;;0.63;89.47
56950;BME280;74437;50.080;19.924;2024-03-07T03:34:00;99544.31;;;0.63;89.54
56950;BME280;74437;50.080;19.924;2024-03-07T03:36:26;99540.44;;;0.66;89.75
56950;BME280;74437;50.080;19.924;2024-03-07T03:38:51;99536.63;;;0.60;89.92
56950;BME280;74437;50.080;19.924;2024-03-07T03:41:17;99539.31;;;0.60;89.81
56950;BME280;74437;50.080;19.924;2024-03-07T03:43:43;99541.44;;;0.65;89.41
56950;BME280;74437;50.080;19.924;2024-03-07T03:46:11;99543.47;;;0.63;89.85
56950;BME280;74437;50.080;19.924;2024-03-07T03:48:40;99516.66;;;0.48;90.12
56950;BME280;74437;50.080;19.924;2024-03-07T03:51:08;99550.84;;;0.61;89.80
56950;BME280;74437;50.080;19.924;2024-03-07T03:53:37;99500.19;;;0.36;89.92
56950;BME280;74437;50.080;19.924;2024-03-07T03:56:02;99543.16;;;0.57;89.77
56950;BME280;74437;50.080;19.924;2024-03-07T03:58:30;99545.97;;;0.56;89.61
56950;BME280;74437;50.080;19.924;2024-03-07T04:00:56;99547.31;;;0.52;89.85
56950;BME280;74437;50.080;19.924;2024-03-07T04:03:23;99555.84;;;0.55;90.04
56950;BME280;74437;50.080;19.924;2024-03-07T04:05:48;99545.50;;;0.52;89.84
56950;BME280;74437;50.080;19.924;2024-03-07T04:08:14;99551.84;;;0.51;89.48
56950;BME280;74437;50.080;19.924;2024-03-07T04:10:39;99551.19;;;0.49;89.65
56950;BME280;74437;50.080;19.924;2024-03-07T04:13:04;99553.00;;;0.49;89.72
56950;BME280;74437;50.080;19.924;2024-03-07T04:15:30;99545.34;;;0.46;89.41
56950;BME280;74437;50.080;19.924;2024-03-07T04:17:57;99553.53;;;0.44;89.14
56950;BME280;74437;50.080;19.924;2024-03-07T04:20:22;99541.38;;;0.33;89.47
56950;BME280;74437;50.080;19.924;2024-03-07T04:22:47;99551.72;;;0.36;89.70
56950;BME280;74437;50.080;19.924;2024-03-07T04:25:16;99516.25;;;0.11;89.73
56950;BME280;74437;50.080;19.924;2024-03-07T04:27:41;99557.53;;;0.40;89.61
56950;BME280;74437;50.080;19.924;2024-03-07T04:30:07;99558.38;;;0.40;90.72
56950;BME280;74437;50.080;19.924;2024-03-07T04:32:35;99558.53;;;0.39;89.88
56950;BME280;74437;50.080;19.924;2024-03-07T04:35:01;99561.19;;;0.39;90.66
56950;BME280;74437;50.080;19.924;2024-03-07T04:37:27;99557.03;;;0.36;91.04
56950;BME280;74437;50.080;19.924;2024-03-07T04:39:53;99559.88;;;0.35;90.20
56950;BME280;74437;50.080;19.924;2024-03-07T04:42:18;99559.53;;;0.29;90.17
56950;BME280;74437;50.080;19.924;2024-03-07T04:44:44;99557.38;;;0.17;90.58
56950;BME280;74437;50.080;19.924;2024-03-07T04:47:10;99558.72;;;0.21;91.03
56950;BME280;74437;50.080;19.924;2024-03-07T04:49:35;99542.72;;;0.04;91.42
56950;BME280;74437;50.080;19.924;2024-03-07T04:52:02;99572.56;;;0.16;91.26
56950;BME280;74437;50.080;19.924;2024-03-07T04:54:29;99486.59;;;-0.36;91.82
56950;BME280;74437;50.080;19.924;2024-03-07T04:56:55;99543.06;;;-0.07;91.47
56950;BME280;74437;50.080;19.924;2024-03-07T04:59:21;99572.91;;;0.13;92.30
56950;BME280;74437;50.080;19.924;2024-03-07T05:01:48;99523.41;;;-0.23;92.56
56950;BME280;74437;50.080;19.924;2024-03-07T05:04:15;99567.72;;;0.03;92.01
56950;BME280;74437;50.080;19.924;2024-03-07T05:06:41;99529.91;;;-0.34;92.59
56950;BME280;74437;50.080;19.924;2024-03-07T05:09:09;99584.72;;;0.02;91.91
56950;BME280;74437;50.080;19.924;2024-03-07T05:11:36;99586.75;;;0.00;92.69
56950;BME280;74437;50.080;19.924;2024-03-07T05:14:02;99582.56;;;-0.03;92.29
56950;BME280;74437;50.080;19.924;2024-03-07T05:16:28;99596.22;;;-0.06;92.73
56950;BME280;74437;50.080;19.924;2024-03-07T05:18:53;99579.88;;;-0.11;93.35
56950;BME280;74437;50.080;19.924;2024-03-07T05:21:19;99577.38;;;-0.21;93.21
56950;BME280;74437;50.080;19.924;2024-03-07T05:24:06;99590.88;;;-0.14;93.45
56950;BME280;74437;50.080;19.924;2024-03-07T05:26:36;99560.88;;;-0.33;93.56
56950;BME280;74437;50.080;19.924;2024-03-07T05:29:09;99595.06;;;-0.11;93.17
56950;BME280;74437;50.080;19.924;2024-03-07T05:31:38;99507.56;;;-0.66;93.48
56950;BME280;74437;50.080;19.924;2024-03-07T05:34:07;99596.38;;;-0.16;93.69
56950;BME280;74437;50.080;19.924;2024-03-07T05:36:35;99509.69;;;-0.69;93.44
56950;BME280;74437;50.080;19.924;2024-03-07T05:39:01;99598.38;;;-0.18;nan
56950;BME280;74437;50.080;19.924;2024-03-07T05:41:33;99606.19;;;-0.16;94.23
56950;BME280;74437;50.080;19.924;2024-03-07T05:43:59;99552.34;;;-0.53;93.84
56950;BME280;74437;50.080;19.924;2024-03-07T05:46:25;99605.88;;;-0.13;92.75
56950;BME280;74437;50.080;19.924;2024-03-07T05:48:51;99615.53;;;-0.12;92.82
56950;BME280;74437;50.080;19.924;2024-03-07T05:51:21;99595.22;;;-0.21;92.85
56950;BME280;74437;50.080;19.924;2024-03-07T05:53:46;99606.88;;;-0.14;92.92
56950;BME280;74437;50.080;19.924;2024-03-07T05:56:12;99596.53;;;-0.17;92.88
56950;BME280;74437;50.080;19.924;2024-03-07T05:58:37;99582.03;;;-0.31;92.07
56950;BME280;74437;50.080;19.924;2024-03-07T06:01:03;99615.03;;;-0.16;92.46
56950;BME280;74437;50.080;19.924;2024-03-07T06:03:28;99594.03;;;-0.27;92.52
56950;BME280;74437;50.080;19.924;2024-03-07T06:05:53;99614.19;;;-0.16;92.52
56950;BME280;74437;50.080;19.924;2024-03-07T06:08:19;99621.53;;;-0.18;92.32
56950;BME280;74437;50.080;19.924;2024-03-07T06:10:45;99622.38;;;-0.18;92.32
56950;BME280;74437;50.080;19.924;2024-03-07T06:13:11;99626.84;;;-0.18;92.62
56950;BME280;74437;50.080;19.924;2024-03-07T06:15:40;99623.19;;;-0.17;91.96
56950;BME280;74437;50.080;19.924;2024-03-07T06:18:07;99602.88;;;-0.26;91.56
56950;BME280;74437;50.080;19.924;2024-03-07T06:20:36;99625.72;;;-0.16;91.13
56950;BME280;74437;50.080;19.924;2024-03-07T06:23:02;99623.38;;;-0.10;92.06
56950;BME280;74437;50.080;19.924;2024-03-07T06:25:33;99625.88;;;-0.09;91.07
56950;BME280;74437;50.080;19.924;2024-03-07T06:28:02;99614.53;;;-0.11;91.24
56950;BME280;74437;50.080;19.924;2024-03-07T06:30:35;99628.22;;;-0.06;91.20
56950;BME280;74437;50.080;19.924;2024-03-07T06:33:01;99581.53;;;-0.35;90.61
56950;BME280;74437;50.080;19.924;2024-03-07T06:35:26;99631.22;;;-0.09;90.26
56950;BME280;74437;50.080;19.924;2024-03-07T06:37:52;99625.38;;;-0.12;91.06
56950;BME280;74437;50.080;19.924;2024-03-07T06:40:17;99635.88;;;-0.11;90.78
56950;BME280;74437;50.080;19.924;2024-03-07T06:42:46;99601.53;;;-0.31;89.98
56950;BME280;74437;50.080;19.924;2024-03-07T06:45:12;99641.19;;;-0.11;89.65
56950;BME280;74437;50.080;19.924;2024-03-07T06:47:37;99613.53;;;-0.26;89.37
56950;BME280;74437;50.080;19.924;2024-03-07T06:50:03;99634.69;;;-0.17;89.36
56950;BME280;74437;50.080;19.924;2024-03-07T06:52:28;99652.03;;;-0.12;89.45
56950;BME280;74437;50.080;19.924;2024-03-07T06:54:54;99644.88;;;-0.12;89.37
56950;BME280;74437;50.080;19.924;2024-03-07T06:57:19;99641.06;;;-0.09;89.90
56950;BME280;74437;50.080;19.924;2024-03-07T06:59:44;99643.72;;;-0.09;89.92
56950;BME280;74437;50.080;19.924;2024-03-07T07:02:10;99638.19;;;-0.16;89.21
56950;BME280;74437;50.080;19.924;2024-03-07T07:04:35;99646.53;;;-0.11;89.44
56950;BME280;74437;50.080;19.924;2024-03-07T07:07:10;99648.06;;;-0.08;89.65
56950;BME280;74437;50.080;19.924;2024-03-07T07:09:38;99655.19;;;-0.09;88.89
56950;BME280;74437;50.080;19.924;2024-03-07T07:12:03;99657.41;;;-0.04;89.95
56950;BME280;74437;50.080;19.924;2024-03-07T07:14:29;99649.53;;;-0.06;88.61
56950;BME280;74437;50.080;19.924;2024-03-07T07:16:54;99654.56;;;-0.03;88.96
56950;BME280;74437;50.080;19.924;2024-03-07T07:19:21;99649.72;;;0.01;89.17
56950;BME280;74437;50.080;19.924;2024-03-07T07:21:47;99608.69;;;-0.31;88.35
56950;BME280;74437;50.080;19.924;2024-03-07T07:24:14;99646.88;;;-0.06;88.62
56950;BME280;74437;50.080;19.924;2024-03-07T07:26:40;99655.38;;;0.06;89.36
56950;BME280;74437;50.080;19.924;2024-03-07T07:29:05;99662.38;;;0.07;88.68
56950;BME280;74437;50.080;19.924;2024-03-07T07:31:32;99661.03;;;0.03;88.05
56950;BME280;74437;50.080;19.924;2024-03-07T07:33:57;99661.41;;;0.00;87.54
56950;BME280;74437;50.080;19.924;2024-03-07T07:36:23;99646.22;;;-0.08;88.17
56950;BME280;74437;50.080;19.924;2024-03-07T07:38:48;99630.50;;;-0.19;87.42
56950;BME280;74437;50.080;19.924;2024-03-07T07:41:14;99660.72;;;-0.02;87.11
56950;BME280;74437;50.080;19.924;2024-03-07T07:43:40;99661.88;;;-0.05;87.92
56950;BME280;74437;50.080;19.924;2024-03-07T07:46:06;99634.19;;;-0.20;87.22
56950;BME280;74437;50.080;19.924;2024-03-07T07:48:31;99655.53;;;-0.04;87.24
56950;BME280;74437;50.080;19.924;2024-03-07T07:50:57;99634.53;;;-0.15;87.86
56950;BME280;74437;50.080;19.924;2024-03-07T07:53:23;99659.22;;;0.04;87.03
56950;BME280;74437;50.080;19.924;2024-03-07T07:55:48;99667.56;;;0.09;87.85
56950;BME280;74437;50.080;19.924;2024-03-07T07:58:14;99665.72;;;0.09;87.29
56950;BME280;74437;50.080;19.924;2024-03-07T08:00:40;99584.88;;;-0.33;87.74
56950;BME280;74437;50.080;19.924;2024-03-07T08:03:08;99663.94;;;0.18;87.46
56950;BME280;74437;50.080;19.924;2024-03-07T08:05:35;99658.91;;;0.07;87.40
56950;BME280;74437;50.080;19.924;2024-03-07T08:08:06;99673.25;;;0.14;87.61
56950;BME280;74437;50.080;19.924;2024-03-07T08:10:32;99668.91;;;0.13;87.09
56950;BME280;74437;50.080;19.924;2024-03-07T08:12:59;99665.91;;;0.08;86.91
56950;BME280;74437;50.080;19.924;2024-03-07T08:15:26;99662.91;;;0.03;86.50
56950;BME280;74437;50.080;19.924;2024-03-07T08:17:53;99670.41;;;-0.01;87.20
56950;BME280;74437;50.080;19.924;2024-03-07T08:20:20;99665.56;;;0.03;87.28
56950;BME280;74437;50.080;19.924;2024-03-07T08:22:48;99673.91;;;0.08;87.55
56950;BME280;74437;50.080;19.924;2024-03-07T08:25:16;99666.75;;;0.00;86.85
56950;BME280;74437;50.080;19.924;2024-03-07T08:27:44;99667.38;;;0.02;86.78
56950;BME280;74437;50.080;19.924;2024-03-07T08:30:11;99655.38;;;-0.10;87.59
56950;BME280;74437;50.080;19.924;2024-03-07T08:32:40;99672.88;;;0.01;86.88
56950;BME280;74437;50.080;19.924;2024-03-07T08:35:07;99674.91;;;0.07;87.66
56950;BME280;74437;50.080;19.924;2024-03-07T08:37:47;99667.72;;;-0.01;87.12
56950;BME280;74437;50.080;19.924;2024-03-07T08:40:22;99682.25;;;0.13;86.76
56950;BME280;74437;50.080;19.924;2024-03-07T08:42:50;99669.91;;;0.12;87.12
56950;BME280;74437;50.080;19.924;2024-03-07T08:45:16;99674.56;;;0.26;87.54
56950;BME280;74437;50.080;19.924;2024-03-07T08:47:49;99683.25;;;0.28;87.25
56950;BME280;74437;50.080;19.924;2024-03-07T08:50:15;99670.56;;;0.06;86.69
56950;BME280;74437;50.080;19.924;2024-03-07T08:52:46;99682.25;;;0.13;87.17
56950;BME280;74437;50.080;19.924;2024-03-07T08:55:14;99672.59;;;0.12;87.37
56950;BME280;74437;50.080;19.924;2024-03-07T08:57:41;99664.88;;;0.01;86.92
56950;BME280;74437;50.080;19.924;2024-03-07T09:00:07;99675.06;;;0.05;86.89
56950;BME280;74437;50.080;19.924;2024-03-07T09:02:37;99613.53;;;-0.26;86.72
56950;BME280;74437;50.080;19.924;2024-03-07T09:05:04;99648.22;;;-0.02;87.17
56950;BME280;74437;50.080;19.924;2024-03-07T09:07:29;99568.00;;;-0.58;86.29
56950;BME280;74437;50.080;19.924;2024-03-07T09:09:55;99687.94;;;0.18;86.29
56950;BME280;74437;50.080;19.924;2024-03-07T09:12:21;99688.41;;;0.22;86.57
56950;BME280;74437;50.080;19.924;2024-03-07T09:14:46;99679.41;;;0.14;86.02
56950;BME280;74437;50.080;19.924;2024-03-07T09:17:12;99688.41;;;0.22;85.80
56950;BME280;74437;50.080;19.924;2024-03-07T09:19:38;99697.75;;;0.18;85.83
56950;BME280;74437;50.080;19.924;2024-03-07T09:22:03;99675.56;;;0.01;85.26
56950;BME280;74437;50.080;19.924;2024-03-07T09:24:30;99652.84;;;-0.20;86.36
56950;BME280;74437;50.080;19.924;2024-03-07T09:26:56;99584.28;;;-0.69;86.47
56950;BME280;74437;50.080;19.924;2024-03-07T09:29:22;99679.53;;;-0.04;85.89
56950;BME280;74437;50.080;19.924;2024-03-07T09:31:52;99701.91;;;0.12;86.15
56950;BME280;74437;50.080;19.924;2024-03-07T09:34:18;99697.91;;;0.08;86.53
56950;BME280;74437;50.080;19.924;2024-03-07T09:36:45;99708.91;;;0.13;86.46
56950;BME280;74437;50.080;19.924;2024-03-07T09:39:11;99699.91;;;0.06;86.22
56950;BME280;74437;50.080;19.924;2024-03-07T09:41:37;99701.25;;;0.10;85.68
56950;BME280;74437;50.080;19.924;2024-03-07T09:44:03;99703.25;;;0.08;85.87
56950;BME280;74437;50.080;19.924;2024-03-07T09:46:30;99692.22;;;0.03;85.42
56950;BME280;74437;50.080;19.924;2024-03-07T09:48:57;99710.25;;;0.09;85.88
56950;BME280;74437;50.080;19.924;2024-03-07T09:51:23;99680.06;;;0.00;85.63
56950;BME280;74437;50.080;19.924;2024-03-07T09:53:50;99706.94;;;0.15;85.57
56950;BME280;74437;50.080;19.924;2024-03-07T09:56:19;99707.28;;;0.20;85.90
56950;BME280;74437;50.080;19.924;2024-03-07T09:58:49;99709.28;;;0.18;84.91
56950;BME280;74437;50.080;19.924;2024-03-07T10:01:15;99678.91;;;0.03;85.41
56950;BME280;74437;50.080;19.924;2024-03-07T10:03:43;99710.94;;;0.19;85.14
56950;BME280;74437;50.080;19.924;2024-03-07T10:06:10;99709.94;;;0.28;85.07
56950;BME280;74437;50.080;19.924;2024-03-07T10:08:35;99717.09;;;0.20;84.55
56950;BME280;74437;50.080;19.924;2024-03-07T10:11:03;99685.56;;;0.07;85.14
56950;BME280;74437;50.080;19.924;2024-03-07T10:13:28;99695.94;;;0.18;85.44
56950;BME280;74437;50.080;19.924;2024-03-07T10:15:56;99659.50;;;-0.16;85.16
56950;BME280;74437;50.080;19.924;2024-03-07T10:18:25;99715.59;;;0.25;85.13
56950;BME280;74437;50.080;19.924;2024-03-07T10:20:53;99718.09;;;0.27;84.92
56950;BME280;74437;50.080;19.924;2024-03-07T10:23:19;99722.78;;;0.33;85.12
56950;BME280;74437;50.080;19.924;2024-03-07T10:25:48;99681.41;;;0.12;84.77
56950;BME280;74437;50.080;19.924;2024-03-07T10:28:13;99709.63;;;0.40;85.16
56950;BME280;74437;50.080;19.924;2024-03-07T10:30:43;99713.97;;;0.49;85.38
56950;BME280;74437;50.080;19.924;2024-03-07T10:33:11;99706.63;;;0.43;84.62
56950;BME280;74437;50.080;19.924;2024-03-07T10:35:38;99699.13;;;0.38;84.74
56950;BME280;74437;50.080;19.924;2024-03-07T10:38:03;99711.78;;;0.44;84.75
56950;BME280;74437;50.080;19.924;2024-03-07T10:40:32;99687.59;;;0.38;85.05
56950;BME280;74437;50.080;19.924;2024-03-07T10:42:58;99682.25;;;0.38;84.49
56950;BME280;74437;50.080;19.924;2024-03-07T10:45:28;99711.78;;;0.61;84.20
56950;BME280;74437;50.080;19.924;2024-03-07T10:47:56;99709.13;;;0.61;84.57
56950;BME280;74437;50.080;19.924;2024-03-07T10:59:18;99711.97;;;0.59;83.08
56950;BME280;74437;50.080;19.924;2024-03-07T11:04:46;99705.94;;;0.74;83.62
56950;BME280;74437;50.080;19.924;2024-03-07T11:07:12;99710.28;;;0.83;84.30
56950;BME280;74437;50.080;19.924;2024-03-07T11:09:38;99693.25;;;0.76;83.60
56950;BME280;74437;50.080;19.924;2024-03-07T11:12:07;99707.09;;;0.96;82.91
56950;BME280;74437;50.080;19.924;2024-03-07T11:14:36;99696.59;;;0.86;82.73
56950;BME280;74437;50.080;19.924;2024-03-07T11:17:03;99701.59;;;0.98;82.49
56950;BME280;74437;50.080;19.924;2024-03-07T11:19:31;99695.88;;;1.09;82.92
56950;BME280;74437;50.080;19.924;2024-03-07T11:21:57;99662.22;;;0.92;82.73
56950;BME280;74437;50.080;19.924;2024-03-07T11:24:27;99687.84;;;1.09;82.62
56950;BME280;74437;50.080;19.924;2024-03-07T11:26:55;99693.53;;;1.14;82.10
56950;BME280;74437;50.080;19.924;2024-03-07T11:29:49;99691.22;;;1.03;81.35
56950;BME280;74437;50.080;19.924;2024-03-07T11:32:19;99699.22;;;1.11;81.48
56950;BME280;74437;50.080;19.924;2024-03-07T11:34:47;99667.56;;;0.75;81.62
56950;BME280;74437;50.080;19.924;2024-03-07T11:37:19;99703.28;;;0.91;82.60
56950;BME280;74437;50.080;19.924;2024-03-07T11:39:48;99712.09;;;0.91;81.91
56950;BME280;74437;50.080;19.924;2024-03-07T11:42:35;99709.09;;;0.86;81.51
56950;BME280;74437;50.080;19.924;2024-03-07T11:45:03;99703.41;;;0.89;82.37
56950;BME280;74437;50.080;19.924;2024-03-07T11:47:38;99707.28;;;0.86;81.58
56950;BME280;74437;50.080;19.924;2024-03-07T11:50:05;99655.91;;;0.59;81.79
56950;BME280;74437;50.080;19.924;2024-03-07T11:52:33;99686.41;;;0.82;81.87
56950;BME280;74437;50.080;19.924;2024-03-07T11:54:59;99703.28;;;0.91;81.63
56950;BME280;74437;50.080;19.924;2024-03-07T11:57:28;99688.91;;;0.83;82.10
56950;BME280;74437;50.080;19.924;2024-03-07T12:00:01;99695.25;;;0.82;82.01
56950;BME280;74437;50.080;19.924;2024-03-07T12:02:33;99707.59;;;0.92;81.69
56950;BME280;74437;50.080;19.924;2024-03-07T12:04:59;99701.25;;;0.93;81.98
56950;BME280;74437;50.080;19.924;2024-03-07T12:07:25;99699.75;;;0.90;81.82
56950;BME280;74437;50.080;19.924;2024-03-07T12:09:51;99680.75;;;0.68;80.91
56950;BME280;74437;50.080;19.924;2024-03-07T12:12:20;99705.09;;;0.90;81.25
56950;BME280;74437;50.080;19.924;2024-03-07T12:14:47;99691.75;;;0.90;81.26
56950;BME280;74437;50.080;19.924;2024-03-07T12:17:13;99702.59;;;0.88;81.61
56950;BME280;74437;50.080;19.924;2024-03-07T12:19:41;99695.59;;;0.96;81.47
56950;BME280;74437;50.080;19.924;2024-03-07T12:22:11;99709.94;;;0.95;80.93
56950;BME280;74437;50.080;19.924;2024-03-07T12:25:00;99697.41;;;0.95;81.40
56950;BME280;74437;50.080;19.924;2024-03-07T12:27:27;99694.53;;;1.05;80.93
56950;BME280;74437;50.080;19.924;2024-03-07T12:29:53;99695.53;;;1.04;81.24
56950;BME280;74437;50.080;19.924;2024-03-07T12:32:19;99704.53;;;1.19;81.96
56950;BME280;74437;50.080;19.924;2024-03-07T12:34:45;99709.72;;;1.21;81.34
56950;BME280;74437;50.080;19.924;2024-03-07T12:37:12;99706.22;;;1.12;80.92
56950;BME280;74437;50.080;19.924;2024-03-07T12:39:42;99709.91;;;1.03;81.30
56950;BME280;74437;50.080;19.924;2024-03-07T12:42:17;99705.41;;;0.95;82.21
56950;BME280;74437;50.080;19.924;2024-03-07T12:44:44;99713.75;;;1.00;81.92
56950;BME280;74437;50.080;19.924;2024-03-07T12:47:16;99693.25;;;0.84;81.74
56950;BME280;74437;50.080;19.924;2024-03-07T12:49:45;99719.44;;;1.06;82.39
56950;BME280;74437;50.080;19.924;2024-03-07T12:52:11;99672.38;;;0.88;81.43
56950;BME280;74437;50.080;19.924;2024-03-07T12:54:40;99712.56;;;1.19;81.48
56950;BME280;74437;50.080;19.924;2024-03-07T12:57:09;99713.19;;;1.38;81.46
56950;BME280;74437;50.080;19.924;2024-03-07T12:59:35;99713.81;;;1.48;80.97
56950;BME280;74437;50.080;19.924;2024-03-07T13:02:03;99715.44;;;1.58;80.50
56950;BME280;74437;50.080;19.924;2024-03-07T13:04:29;99711.53;;;1.69;80.17
56950;BME280;74437;50.080;19.924;2024-03-07T13:06:55;99710.72;;;1.68;78.90
56950;BME280;74437;50.080;19.924;2024-03-07T13:09:25;99695.03;;;1.65;79.64